Lardo, Idaho
Current Conditions -  °F | °C
As of 3:38 AM on Sunday 26 Oct 2014 (Local Time) from KMYL Reporting Station
Overcast Overcast  
Wind Chill: 36°   Ceiling: 3900
Heat Index: 42°   Visibility: 10mi
Dew Point: 36°   Wind: 12mph
Humidity: 79%   Direction: 160°SSE
Pressure: 29.9"   Gusts: NA
Location:  44.8627°N, 115.492°W
Report Text: KMYL 260938Z AUTO 16010KT 10SM SCT025 BKN039 OVC060 06/02 A2990 RMK AO2 RAE04 P0000 T00560022
Loading
Personal Weather Stations






























Interactive Weather Map
Tropical Storm Tracking
New forecast layout! Learn more

10-Day Weather Forecast

Advertisements
Track Severe Weather on mobile